createdAt,value
2022-10-31T00:00:33.205Z,101409.41
2022-10-31T00:02:59.926Z,101401.75
2022-10-31T00:05:26.423Z,101396.66
2022-10-31T00:07:54.053Z,101400.72
2022-10-31T00:10:20.482Z,101401.34
2022-10-31T00:12:46.928Z,101406.44
2022-10-31T00:15:13.404Z,101415.78
2022-10-31T00:17:39.809Z,101430.44
2022-10-31T00:20:06.911Z,101435.34
2022-10-31T00:22:33.360Z,101439.34
2022-10-31T00:24:59.921Z,101439.59
2022-10-31T00:27:26.574Z,101444.25
2022-10-31T00:29:52.980Z,101448.06
2022-10-31T00:32:19.414Z,101450.41
2022-10-31T00:34:45.800Z,101447.88
2022-10-31T00:37:12.209Z,101446.16
2022-10-31T00:39:38.567Z,101447.88
2022-10-31T00:42:05.004Z,101444.44
2022-10-31T00:44:31.378Z,101439.34
2022-10-31T00:46:57.815Z,101443.41
2022-10-31T00:49:24.278Z,101452.50
2022-10-31T00:51:50.682Z,101455.25
2022-10-31T00:54:17.116Z,101445.94
2022-10-31T00:56:43.504Z,101452.31
2022-10-31T00:59:09.936Z,101446.78
2022-10-31T01:01:36.459Z,101447.44
2022-10-31T01:04:03.073Z,101452.09
2022-10-31T01:06:29.540Z,101449.53
2022-10-31T01:08:55.952Z,101444.44
2022-10-31T01:11:24.061Z,101450.16
2022-10-31T01:13:52.791Z,101449.31
2022-10-31T01:16:21.255Z,101444.03
2022-10-31T01:18:48.215Z,101437.44
2022-10-31T01:21:20.918Z,101441.25
2022-10-31T01:23:47.382Z,101427.22
2022-10-31T01:26:26.366Z,101427.03
2022-10-31T01:29:01.066Z,101425.97
2022-10-31T01:31:30.293Z,101413.03
2022-10-31T01:33:57.563Z,101410.47
2022-10-31T01:36:29.613Z,101406.66
2022-10-31T01:39:01.782Z,101409.63
2022-10-31T01:41:31.342Z,101414.28
2022-10-31T01:44:22.962Z,101415.38
2022-10-31T01:46:57.604Z,101407.28
2022-10-31T01:49:31.125Z,101404.53
2022-10-31T01:52:19.035Z,101407.47
2022-10-31T01:55:40.615Z,101414.72
2022-10-31T01:58:12.921Z,101409.63
2022-10-31T02:00:42.939Z,101410.66
2022-10-31T02:03:09.889Z,101407.06
2022-10-31T02:05:36.862Z,101410.03
2022-10-31T02:08:21.327Z,101408.34
2022-10-31T02:10:47.975Z,101415.13
2022-10-31T02:13:15.268Z,101415.34
2022-10-31T02:15:45.423Z,101412.13
2022-10-31T02:18:11.977Z,101416.38
2022-10-31T02:20:49.067Z,101416.38
2022-10-31T02:23:24.339Z,101413.00
2022-10-31T02:26:00.281Z,101416.81
2022-10-31T02:28:51.643Z,101415.09
2022-10-31T02:31:30.010Z,101414.66
2022-10-31T02:34:20.447Z,101419.75
2022-10-31T02:37:07.722Z,101414.47
2022-10-31T02:39:49.000Z,101422.06
2022-10-31T02:42:31.184Z,101407.84
2022-10-31T02:45:21.367Z,101409.75
2022-10-31T02:47:51.451Z,101402.34
2022-10-31T02:50:29.115Z,101403.19
2022-10-31T02:52:55.549Z,101399.78
2022-10-31T02:55:27.926Z,101400.63
2022-10-31T02:58:01.304Z,101398.72
2022-10-31T03:00:29.665Z,101393.19
2022-10-31T03:03:15.770Z,101399.16
2022-10-31T03:06:04.349Z,101401.72
2022-10-31T03:08:51.445Z,101403.41
2022-10-31T03:11:23.266Z,101402.16
2022-10-31T03:14:00.784Z,101412.94
2022-10-31T03:16:39.508Z,101408.50
2022-10-31T03:19:13.369Z,101413.81
2022-10-31T03:21:47.682Z,101416.78
2022-10-31T03:24:16.157Z,101417.22
2022-10-31T03:26:48.507Z,101413.16
2022-10-31T03:29:19.591Z,101421.00
2022-10-31T03:31:48.197Z,101420.59
2022-10-31T03:34:17.087Z,101422.66
2022-10-31T03:36:46.639Z,101418.41
2022-10-31T03:39:16.735Z,101412.88
2022-10-31T03:41:47.607Z,101412.22
2022-10-31T03:44:18.455Z,101417.75
2022-10-31T03:46:45.152Z,101420.72
2022-10-31T03:49:13.123Z,101412.47
2022-10-31T03:51:49.821Z,101406.94
2022-10-31T03:54:30.580Z,101413.50
2022-10-31T03:57:14.474Z,101414.56
2022-10-31T03:59:45.557Z,101416.47
2022-10-31T04:02:16.942Z,101419.44
2022-10-31T04:04:45.540Z,101409.47
2022-10-31T04:07:13.705Z,101413.69
2022-10-31T04:09:44.235Z,101412.00
2022-10-31T04:12:16.022Z,101410.72
2022-10-31T04:14:45.572Z,101413.66
2022-10-31T04:17:15.835Z,101405.59
2022-10-31T04:19:42.330Z,101404.97
2022-10-31T04:22:08.839Z,101402.19
2022-10-31T04:24:35.335Z,101404.97
2022-10-31T04:27:01.745Z,101406.84
2022-10-31T04:29:28.135Z,101405.81
2022-10-31T04:31:54.560Z,101398.41
2022-10-31T04:34:20.932Z,101393.94
2022-10-31T04:36:47.314Z,101394.97
2022-10-31T04:39:13.745Z,101394.97
2022-10-31T04:41:40.252Z,101397.97
2022-10-31T04:44:06.715Z,101395.59
2022-10-31T04:46:33.250Z,101405.13
2022-10-31T04:48:59.680Z,101403.41
2022-10-31T04:51:26.096Z,101395.38
2022-10-31T04:53:52.475Z,101399.84
2022-10-31T04:56:18.894Z,101407.25
2022-10-31T04:58:45.290Z,101405.34
2022-10-31T05:01:11.914Z,101405.56
2022-10-31T05:03:40.195Z,101397.28
2022-10-31T05:06:07.485Z,101392.41
2022-10-31T05:08:34.018Z,101389.44
2022-10-31T05:11:04.413Z,101385.41
2022-10-31T05:13:31.989Z,101380.56
2022-10-31T05:15:58.358Z,101381.19
2022-10-31T05:18:24.803Z,101385.66
2022-10-31T05:20:51.225Z,101375.47
2022-10-31T05:23:17.662Z,101372.50
2022-10-31T05:25:44.080Z,101374.22
2022-10-31T05:28:10.551Z,101379.72
2022-10-31T05:30:37.636Z,101376.97
2022-10-31T05:33:04.184Z,101368.69
2022-10-31T05:35:33.428Z,101379.72
2022-10-31T05:38:00.322Z,101379.72
2022-10-31T05:40:27.886Z,101379.72
2022-10-31T05:42:56.548Z,101371.25
2022-10-31T05:45:24.129Z,101376.78
2022-10-31T05:47:55.008Z,101367.41
2022-10-31T05:50:21.758Z,101368.06
2022-10-31T05:52:48.467Z,101368.94
2022-10-31T05:55:15.002Z,101368.28
2022-10-31T05:57:41.450Z,101371.03
2022-10-31T06:00:08.660Z,101367.22
2022-10-31T06:02:35.513Z,101361.72
2022-10-31T06:05:02.867Z,101359.81
2022-10-31T06:07:33.652Z,101361.72
2022-10-31T06:10:00.044Z,101359.16
2022-10-31T06:12:26.520Z,101361.09
2022-10-31T06:14:52.919Z,101364.47
2022-10-31T06:17:19.364Z,101378.25
2022-10-31T06:19:45.869Z,101365.31
2022-10-31T06:22:12.497Z,101364.28
2022-10-31T06:24:39.447Z,101369.56
2022-10-31T06:27:06.053Z,101367.66
2022-10-31T06:29:32.929Z,101372.97
2022-10-31T06:31:59.317Z,101358.53
2022-10-31T06:34:25.696Z,101360.25
2022-10-31T06:36:52.064Z,101354.72
2022-10-31T06:39:18.533Z,101353.69
2022-10-31T06:41:44.988Z,101361.53
2022-10-31T06:44:11.378Z,101356.00
2022-10-31T06:46:37.798Z,101359.41
2022-10-31T06:49:05.274Z,101360.69
2022-10-31T06:51:31.720Z,101362.38
2022-10-31T06:53:58.118Z,101362.38
2022-10-31T06:56:24.514Z,101361.97
2022-10-31T06:58:50.957Z,101363.28
2022-10-31T07:01:17.478Z,101363.28
2022-10-31T07:03:43.986Z,101354.38
2022-10-31T07:06:10.398Z,101361.19
2022-10-31T07:08:36.835Z,101368.41
2022-10-31T07:11:03.276Z,101369.69
2022-10-31T07:13:29.735Z,101374.16
2022-10-31T07:16:01.795Z,101368.00
2022-10-31T07:18:28.408Z,101368.00
2022-10-31T07:20:54.977Z,101365.88
2022-10-31T07:23:22.200Z,101362.88
2022-10-31T07:25:49.046Z,101362.91
2022-10-31T07:28:15.474Z,101355.66
2022-10-31T07:30:41.908Z,101360.94
2022-10-31T07:33:09.579Z,101351.78
2022-10-31T07:35:36.244Z,101354.78
2022-10-31T07:38:11.546Z,101343.28
2022-10-31T07:40:38.415Z,101351.13
2022-10-31T07:43:08.840Z,101366.22
2022-10-31T07:45:38.022Z,101358.56
2022-10-31T07:48:04.710Z,101354.31
2022-10-31T07:50:34.910Z,101352.81
2022-10-31T07:53:01.451Z,101358.97
2022-10-31T07:55:28.997Z,101354.69
2022-10-31T07:58:19.805Z,101361.50
2022-10-31T08:00:48.022Z,101362.09
2022-10-31T08:03:17.004Z,101357.66
2022-10-31T08:05:43.509Z,101364.66
2022-10-31T08:08:10.190Z,101363.16
2022-10-31T08:10:37.667Z,101364.19
2022-10-31T08:13:12.587Z,101359.72
2022-10-31T08:15:42.085Z,101348.22
2022-10-31T08:18:14.017Z,101356.72
2022-10-31T08:20:41.270Z,101343.50
2022-10-31T08:23:07.763Z,101346.44
2022-10-31T08:25:38.426Z,101354.31
2022-10-31T08:28:07.042Z,101345.00
2022-10-31T08:30:35.807Z,101349.03
2022-10-31T08:33:05.253Z,101338.81
2022-10-31T08:35:32.714Z,101346.25
2022-10-31T08:37:59.601Z,101351.97
2022-10-31T08:40:28.396Z,101347.06
2022-10-31T08:42:58.771Z,101341.28
2022-10-31T08:45:25.687Z,101344.41
2022-10-31T08:47:52.098Z,101336.28
2022-10-31T08:50:19.022Z,101347.16
2022-10-31T08:53:04.323Z,101345.44
2022-10-31T08:55:31.798Z,101345.22
2022-10-31T08:57:59.503Z,101342.44
2022-10-31T09:00:26.691Z,101342.63
2022-10-31T09:03:00.828Z,101341.97
2022-10-31T09:05:27.595Z,101331.56
2022-10-31T09:08:02.015Z,101330.00
2022-10-31T09:10:29.955Z,101324.84
2022-10-31T09:13:08.575Z,101323.97
2022-10-31T09:15:36.932Z,101317.91
2022-10-31T09:18:04.025Z,101315.47
2022-10-31T09:20:32.692Z,101314.97
2022-10-31T09:23:05.068Z,101317.91
2022-10-31T09:25:31.636Z,101309.50
2022-10-31T09:27:59.960Z,101303.91
2022-10-31T09:30:35.848Z,101302.97
2022-10-31T09:33:12.858Z,101296.75
2022-10-31T09:35:40.317Z,101294.44
2022-10-31T09:38:10.707Z,101296.91
2022-10-31T09:40:49.638Z,101296.38
2022-10-31T09:43:36.824Z,101294.81
2022-10-31T09:46:12.014Z,101300.06
2022-10-31T09:49:10.863Z,101280.19
2022-10-31T09:51:43.005Z,101286.13
2022-10-31T09:54:18.606Z,101281.19
2022-10-31T09:56:45.524Z,101280.84
2022-10-31T09:59:26.575Z,101280.53
2022-10-31T10:02:02.155Z,101282.41
2022-10-31T10:04:47.447Z,101270.69
2022-10-31T10:07:44.647Z,101275.28
2022-10-31T10:10:21.802Z,101274.09
2022-10-31T10:12:57.703Z,101272.94
2022-10-31T10:16:12.246Z,101260.28
2022-10-31T10:18:56.965Z,101252.31
2022-10-31T10:21:39.308Z,101256.22
2022-10-31T10:24:36.194Z,101262.94
2022-10-31T10:27:16.741Z,101262.56
2022-10-31T10:29:48.518Z,101257.84
2022-10-31T10:32:28.642Z,101254.63
2022-10-31T10:35:03.090Z,101248.97
2022-10-31T10:37:35.127Z,101247.50
2022-10-31T10:40:28.793Z,101241.63
2022-10-31T10:43:19.921Z,101230.44
2022-10-31T10:46:11.619Z,101232.00
2022-10-31T10:49:01.462Z,101232.41
2022-10-31T10:54:39.625Z,101236.28
2022-10-31T10:57:33.924Z,101229.03
2022-10-31T11:00:04.450Z,101223.84
2022-10-31T11:02:33.475Z,101215.63
2022-10-31T11:05:02.705Z,101199.09
2022-10-31T11:07:40.207Z,101198.13
2022-10-31T11:10:14.954Z,101198.50
2022-10-31T11:12:43.534Z,101196.56
2022-10-31T11:15:23.238Z,101186.28
2022-10-31T11:17:52.865Z,101197.53
2022-10-31T11:20:19.422Z,101188.69
2022-10-31T11:22:48.022Z,101191.09
2022-10-31T11:25:20.295Z,101196.75
2022-10-31T11:27:47.734Z,101176.06
2022-10-31T11:30:15.324Z,101173.56
2022-10-31T11:32:50.255Z,101179.47
2022-10-31T11:35:19.531Z,101179.00
2022-10-31T11:37:48.087Z,101164.88
2022-10-31T11:40:27.064Z,101151.16
2022-10-31T11:42:57.710Z,101146.19
2022-10-31T11:45:24.048Z,101136.97
2022-10-31T11:47:58.216Z,101142.97
2022-10-31T11:50:36.899Z,101141.72
2022-10-31T11:53:04.577Z,101139.41
2022-10-31T11:55:37.552Z,101126.41
2022-10-31T11:58:05.314Z,101120.16
2022-10-31T12:00:35.160Z,101113.09
2022-10-31T12:03:34.756Z,101114.44
2022-10-31T12:06:26.068Z,101110.25
2022-10-31T12:08:52.602Z,101101.53
2022-10-31T12:11:22.088Z,101101.75
2022-10-31T12:14:04.315Z,101092.16
2022-10-31T12:17:02.740Z,101098.22
2022-10-31T12:19:40.701Z,101093.91
2022-10-31T12:22:20.000Z,101091.00
2022-10-31T12:24:59.420Z,101088.00
2022-10-31T12:28:03.096Z,101086.31
2022-10-31T12:30:43.973Z,101078.28
2022-10-31T12:33:40.110Z,101081.91
2022-10-31T12:36:34.565Z,101073.03
2022-10-31T12:39:14.029Z,101065.31
2022-10-31T12:41:52.026Z,101054.75
2022-10-31T12:44:46.148Z,101048.59
2022-10-31T12:47:43.673Z,101021.22
2022-10-31T12:50:17.791Z,101010.59
2022-10-31T12:53:37.615Z,101026.56
2022-10-31T12:56:10.971Z,101020.69
2022-10-31T12:58:55.607Z,101022.16
2022-10-31T13:01:31.431Z,101009.97
2022-10-31T13:04:14.204Z,101003.88
2022-10-31T13:06:54.913Z,100988.25
2022-10-31T13:09:29.566Z,100990.22
2022-10-31T13:12:03.110Z,100991.03
2022-10-31T13:14:42.742Z,100986.63
2022-10-31T13:17:22.707Z,100975.06
2022-10-31T13:19:52.476Z,100974.47
2022-10-31T13:22:24.551Z,100964.94
2022-10-31T13:25:00.077Z,100960.63
2022-10-31T13:27:30.767Z,100948.13
2022-10-31T13:30:17.946Z,100939.47
2022-10-31T13:32:50.010Z,100951.97
2022-10-31T13:35:34.102Z,100952.19
2022-10-31T13:38:11.308Z,100953.72
2022-10-31T13:40:56.360Z,100957.28
2022-10-31T13:43:45.131Z,100975.50
2022-10-31T13:46:25.970Z,100965.59
2022-10-31T13:48:52.620Z,100964.44
2022-10-31T13:51:30.306Z,100953.16
2022-10-31T13:53:56.602Z,100937.25
2022-10-31T13:56:30.324Z,100919.94
2022-10-31T13:59:07.864Z,100931.09
2022-10-31T14:01:34.780Z,100940.22
2022-10-31T14:04:13.167Z,100928.56
2022-10-31T14:06:49.448Z,100917.22
2022-10-31T14:09:30.848Z,100908.69
2022-10-31T14:12:00.891Z,100898.84
2022-10-31T14:14:34.397Z,100899.56
2022-10-31T14:17:02.145Z,100893.34
2022-10-31T14:19:28.806Z,100887.91
2022-10-31T14:21:55.405Z,100878.81
2022-10-31T14:24:24.608Z,100877.22
2022-10-31T14:27:03.369Z,100885.09
2022-10-31T14:29:32.352Z,100888.75
2022-10-31T14:32:08.526Z,100877.91
2022-10-31T14:34:37.592Z,100874.59
2022-10-31T14:37:28.758Z,100861.19
2022-10-31T14:40:08.570Z,100860.94
2022-10-31T14:42:51.743Z,100862.03
2022-10-31T14:45:31.218Z,100853.66
2022-10-31T14:48:21.434Z,100857.84
2022-10-31T14:50:53.875Z,100850.28
2022-10-31T14:53:48.709Z,100843.25
2022-10-31T14:56:23.817Z,100841.88
2022-10-31T14:58:50.669Z,100834.03
2022-10-31T15:01:31.900Z,100820.84
2022-10-31T15:04:24.973Z,100812.97
2022-10-31T15:07:15.840Z,100812.97
2022-10-31T15:09:44.702Z,100811.84
2022-10-31T15:12:27.928Z,100809.03
2022-10-31T15:14:54.490Z,100810.47
2022-10-31T15:17:21.829Z,100802.91
2022-10-31T15:19:48.503Z,100803.75
2022-10-31T15:22:17.901Z,100798.47
2022-10-31T15:24:45.170Z,100811.13
2022-10-31T15:27:14.439Z,100805.81
2022-10-31T15:29:55.877Z,100803.59
2022-10-31T15:32:28.076Z,100786.75
2022-10-31T15:34:59.329Z,100780.63
2022-10-31T15:37:27.287Z,100774.47
2022-10-31T15:39:54.142Z,100776.09
2022-10-31T15:42:28.603Z,100784.16
2022-10-31T15:45:06.256Z,100802.22
2022-10-31T15:47:34.175Z,100797.66
2022-10-31T15:50:02.532Z,100788.66
2022-10-31T15:52:48.148Z,100773.53
2022-10-31T15:55:16.361Z,100769.78
2022-10-31T15:57:44.755Z,100765.78
2022-10-31T16:00:25.181Z,100751.19
2022-10-31T16:03:04.145Z,100753.06
2022-10-31T16:05:40.336Z,100768.03
2022-10-31T16:08:25.188Z,100771.56
2022-10-31T16:10:51.702Z,100778.72
2022-10-31T16:13:20.094Z,100772.47
2022-10-31T16:15:59.552Z,100782.69
2022-10-31T16:18:41.344Z,100779.50
2022-10-31T16:21:09.321Z,100777.69
2022-10-31T16:23:38.796Z,100788.69
2022-10-31T16:26:09.365Z,100791.63
2022-10-31T16:28:39.670Z,100769.22
2022-10-31T16:31:16.572Z,100756.59
2022-10-31T16:33:43.813Z,100758.75
2022-10-31T16:36:35.330Z,100777.25
2022-10-31T16:39:03.650Z,100781.84
2022-10-31T16:41:30.137Z,100774.78
2022-10-31T16:43:56.715Z,100780.78
2022-10-31T16:46:25.584Z,100786.28
2022-10-31T16:48:52.808Z,100798.41
2022-10-31T16:51:19.484Z,100796.03
2022-10-31T16:53:46.991Z,100790.91
2022-10-31T16:56:27.093Z,100780.47
2022-10-31T16:58:53.594Z,100786.69
2022-10-31T17:01:20.203Z,100775.44
2022-10-31T17:03:46.698Z,100772.47
2022-10-31T17:06:14.262Z,100777.34
2022-10-31T17:08:41.079Z,100790.31
2022-10-31T17:11:14.569Z,100789.63
2022-10-31T17:13:41.055Z,100777.84
2022-10-31T17:16:07.586Z,100777.97
2022-10-31T17:18:33.976Z,100784.53
2022-10-31T17:21:03.788Z,100796.03
2022-10-31T17:23:31.142Z,100789.19
2022-10-31T17:25:57.639Z,100780.75
2022-10-31T17:28:26.409Z,100773.16
2022-10-31T17:30:55.763Z,100775.00
2022-10-31T17:33:22.285Z,100765.72
2022-10-31T17:35:48.677Z,100780.59
2022-10-31T17:38:15.111Z,100781.31
2022-10-31T17:40:42.407Z,100772.31
2022-10-31T17:43:10.188Z,100775.81
2022-10-31T17:45:40.357Z,100782.13
2022-10-31T17:48:07.519Z,100786.91
2022-10-31T17:50:33.936Z,100785.75
2022-10-31T17:53:00.855Z,100779.25
2022-10-31T17:55:27.542Z,100765.03
2022-10-31T17:57:54.089Z,100777.69
2022-10-31T18:00:22.555Z,100767.59
2022-10-31T18:02:49.049Z,100768.06
2022-10-31T18:05:15.478Z,100759.16
2022-10-31T18:07:41.965Z,100766.25
2022-10-31T18:10:09.413Z,100759.50
2022-10-31T18:12:37.250Z,100764.47
2022-10-31T18:15:06.464Z,100764.13
2022-10-31T18:17:34.887Z,100766.25
2022-10-31T18:20:04.632Z,100769.53
2022-10-31T18:22:31.046Z,100758.09
2022-10-31T18:25:01.908Z,100763.63
2022-10-31T18:27:28.923Z,100760.50
2022-10-31T18:29:55.426Z,100763.47
2022-10-31T18:32:21.830Z,100761.19
2022-10-31T18:34:48.188Z,100754.44
2022-10-31T18:37:14.562Z,100756.03
2022-10-31T18:39:40.998Z,100748.66
2022-10-31T18:42:07.412Z,100753.00
2022-10-31T18:44:34.316Z,100744.59
2022-10-31T18:47:00.706Z,100750.56
2022-10-31T18:49:29.194Z,100749.84
2022-10-31T18:51:55.598Z,100743.09
2022-10-31T18:54:21.996Z,100744.91
2022-10-31T18:56:48.454Z,100740.72
2022-10-31T18:59:14.897Z,100741.16
2022-10-31T19:01:41.439Z,100738.28
2022-10-31T19:04:08.035Z,100740.44
2022-10-31T19:06:34.433Z,100740.91
2022-10-31T19:09:03.707Z,100737.06
2022-10-31T19:11:33.749Z,100742.25
2022-10-31T19:14:00.714Z,100732.94
2022-10-31T19:16:28.196Z,100731.72
2022-10-31T19:18:56.231Z,100727.53
2022-10-31T19:21:23.563Z,100728.00
2022-10-31T19:23:52.766Z,100728.22
2022-10-31T19:26:19.379Z,100733.75
2022-10-31T19:28:45.780Z,100738.69
2022-10-31T19:31:12.227Z,100738.94
2022-10-31T19:33:38.706Z,100741.94
2022-10-31T19:36:10.928Z,100742.16
2022-10-31T19:38:39.592Z,100739.66
2022-10-31T19:41:19.271Z,100734.56
2022-10-31T19:43:45.799Z,100730.59
2022-10-31T19:46:22.132Z,100733.81
2022-10-31T19:48:54.819Z,100733.22
2022-10-31T19:51:22.163Z,100724.94
2022-10-31T19:53:49.747Z,100723.25
2022-10-31T19:56:24.096Z,100719.88
2022-10-31T19:58:50.852Z,100725.88
2022-10-31T20:01:19.767Z,100714.44
2022-10-31T20:03:47.456Z,100718.03
2022-10-31T20:06:26.658Z,100717.44
2022-10-31T20:08:55.619Z,100714.91
2022-10-31T20:11:23.844Z,100711.06
2022-10-31T20:13:50.638Z,100706.63
2022-10-31T20:16:18.102Z,100702.41
2022-10-31T20:18:44.483Z,100702.63
2022-10-31T20:21:15.649Z,100702.88
2022-10-31T20:23:42.562Z,100703.34
2022-10-31T20:26:11.562Z,100697.84
2022-10-31T20:28:41.428Z,100692.53
2022-10-31T20:31:19.338Z,100692.97
2022-10-31T20:33:46.432Z,100692.59
2022-10-31T20:36:12.857Z,100683.66
2022-10-31T20:38:40.743Z,100681.53
2022-10-31T20:41:09.293Z,100685.16
2022-10-31T20:43:36.596Z,100670.47
2022-10-31T20:46:07.771Z,100672.16
2022-10-31T20:48:34.683Z,100675.75
2022-10-31T20:51:06.013Z,100675.31
2022-10-31T20:53:33.395Z,100674.22
2022-10-31T20:56:07.479Z,100669.56
2022-10-31T20:58:35.764Z,100667.41
2022-10-31T21:01:02.409Z,100661.91
2022-10-31T21:03:28.840Z,100663.81
2022-10-31T21:05:57.533Z,100669.56
2022-10-31T21:08:24.608Z,100669.56
2022-10-31T21:10:51.160Z,100669.56
2022-10-31T21:13:18.961Z,100675.09
2022-10-31T21:15:46.568Z,100660.66
2022-10-31T21:18:13.271Z,100663.16
2022-10-31T21:20:43.604Z,100664.03
2022-10-31T21:23:11.503Z,100661.63
2022-10-31T21:25:42.422Z,100661.16
2022-10-31T21:28:10.995Z,100663.94
2022-10-31T21:30:42.058Z,100664.78
2022-10-31T21:33:08.501Z,100663.09
2022-10-31T21:35:34.944Z,100658.41
2022-10-31T21:38:01.595Z,100653.72
2022-10-31T21:40:29.081Z,100654.78
2022-10-31T21:42:56.055Z,100649.88
2022-10-31T21:45:23.445Z,100649.41
2022-10-31T21:47:50.040Z,100640.03
2022-10-31T21:50:17.535Z,100644.03
2022-10-31T21:52:43.970Z,100638.22
2022-10-31T21:55:10.542Z,100636.31
2022-10-31T21:57:37.117Z,100644.63
2022-10-31T22:00:08.993Z,100636.09
2022-10-31T22:02:37.837Z,100632.69
2022-10-31T22:05:04.718Z,100621.19
2022-10-31T22:07:32.410Z,100628.38
2022-10-31T22:09:58.844Z,100628.38
2022-10-31T22:12:25.675Z,100640.06
2022-10-31T22:14:52.081Z,100637.53
2022-10-31T22:17:18.996Z,100639.22
2022-10-31T22:19:45.396Z,100634.53
2022-10-31T22:22:13.023Z,100630.44
2022-10-31T22:24:39.425Z,100619.16
2022-10-31T22:27:05.938Z,100615.91
2022-10-31T22:29:32.593Z,100616.88
2022-10-31T22:31:59.792Z,100609.78
2022-10-31T22:34:28.282Z,100607.16
2022-10-31T22:36:55.347Z,100601.50
2022-10-31T22:39:21.814Z,100607.38
2022-10-31T22:41:48.227Z,100599.22
2022-10-31T22:44:14.631Z,100605.94
2022-10-31T22:46:41.149Z,100611.00
2022-10-31T22:49:16.461Z,100603.28
2022-10-31T22:51:43.764Z,100606.66
2022-10-31T22:54:16.911Z,100593.41
2022-10-31T22:56:43.752Z,100600.03
2022-10-31T22:59:15.161Z,100598.09
2022-10-31T23:01:44.703Z,100601.13
2022-10-31T23:06:43.068Z,100604.63
2022-10-31T23:09:14.051Z,100599.94
2022-10-31T23:11:40.948Z,100595.69
2022-10-31T23:14:13.917Z,100603.19
2022-10-31T23:16:40.547Z,100610.63
2022-10-31T23:19:18.036Z,100606.75
2022-10-31T23:22:02.848Z,100605.94
2022-10-31T23:24:40.819Z,100607.03
2022-10-31T23:27:18.551Z,100617.84
2022-10-31T23:29:55.947Z,100606.75
2022-10-31T23:32:24.748Z,100614.84
2022-10-31T23:34:53.496Z,100602.44
2022-10-31T23:37:22.276Z,100591.38
2022-10-31T23:39:49.298Z,100585.38
2022-10-31T23:42:16.567Z,100603.41
2022-10-31T23:44:43.063Z,100605.69
2022-10-31T23:47:09.436Z,100594.97
2022-10-31T23:49:35.967Z,100591.97
2022-10-31T23:52:03.637Z,100589.78
2022-10-31T23:54:30.745Z,100589.31
2022-10-31T23:56:58.196Z,100588.47
2022-10-31T23:59:25.804Z,100580.78
